Time;durP1;ratioP1;P1;durP2;ratioP2;P2;SDS_P1;SDS_P2;PMS_P1;PMS_P2;Temp;Humidity;BMP_temperature;BMP_pressure;BME280_temperature;BME280_humidity;BME280_pressure;Samples;Min_cycle;Max_cycle;Signal;HPM_P1;HPM_P2
2023/08/18 00:14:51;;;;;;;12.20;9.20;;;;;;;26.05;98.46;100809.11;672328;1272;139276;-81
2023/08/18 00:29:54;;;;;;;14.90;8.90;;;;;;;26.07;98.70;100798.09;672192;1263;139554;-82
2023/08/18 00:44:58;;;;;;;11.90;8.60;;;;;;;26.15;98.55;100784.10;672022;1267;140350;-81
2023/08/18 01:00:03;;;;;;;13.90;9.40;;;;;;;26.00;98.95;100773.55;672012;1267;140858;-81
2023/08/18 01:15:15;;;;;;;12.00;9.50;;;;;;;25.88;99.47;100741.08;672009;1268;139446;-80
2023/08/18 01:30:20;;;;;;;15.80;10.80;;;;;;;25.74;99.41;100766.33;669004;1265;140195;-81
2023/08/18 01:45:24;;;;;;;15.20;10.70;;;;;;;25.58;99.64;100786.05;671653;1266;139940;-82
2023/08/18 02:00:28;;;;;;;13.50;10.30;;;;;;;25.37;99.68;100779.94;671954;1264;138990;-81
2023/08/18 02:15:31;;;;;;;17.10;10.80;;;;;;;25.10;99.63;100774.10;671980;1267;139420;-81
2023/08/18 02:30:35;;;;;;;12.80;9.90;;;;;;;25.11;99.71;100765.42;671469;1267;139443;-82
2023/08/18 02:45:38;;;;;;;14.90;9.70;;;;;;;25.22;99.66;100761.10;671741;1267;140288;-82
2023/08/18 03:00:42;;;;;;;14.40;10.30;;;;;;;25.05;99.52;100781.70;671652;1267;138982;-81
2023/08/18 03:15:45;;;;;;;12.40;9.70;;;;;;;24.85;98.87;100806.52;671522;1275;140160;-81
2023/08/18 03:30:48;;;;;;;13.70;10.30;;;;;;;24.68;97.51;100816.05;671404;1267;139277;-82
2023/08/18 03:45:52;;;;;;;17.30;11.00;;;;;;;24.80;96.99;100823.02;671910;1267;139146;-82
2023/08/18 04:01:04;;;;;;;14.80;10.60;;;;;;;24.67;96.36;100848.44;671971;1269;138925;-82
2023/08/18 04:16:08;;;;;;;13.10;10.00;;;;;;;24.83;96.44;100866.64;673257;1280;139829;-82
2023/08/18 04:31:14;;;;;;;12.20;10.70;;;;;;;24.95;96.28;100835.75;672488;1266;140265;-81
2023/08/18 04:46:26;;;;;;;13.30;9.80;;;;;;;25.09;95.88;100821.66;671298;1266;141106;-81
2023/08/18 05:01:33;;;;;;;12.90;9.40;;;;;;;25.32;93.96;100809.01;671093;1267;139180;-81
2023/08/18 05:16:37;;;;;;;17.00;11.60;;;;;;;25.65;93.97;100788.79;671114;1279;139804;-81
2023/08/18 05:31:41;;;;;;;11.90;8.60;;;;;;;26.27;94.09;100772.43;671081;1267;139615;-81
2023/08/18 05:46:44;;;;;;;10.20;8.00;;;;;;;26.85;93.74;100775.39;671130;1267;139975;-81
2023/08/18 06:01:50;;;;;;;9.00;5.70;;;;;;;29.68;88.21;100775.07;672244;1263;139569;-81
2023/08/18 06:16:53;;;;;;;8.60;6.30;;;;;;;30.21;82.38;100760.65;672342;1265;140214;-81
2023/08/18 06:31:56;;;;;;;13.80;6.60;;;;;;;30.95;80.08;100739.80;672508;1269;139969;-81
2023/08/18 06:47:01;;;;;;;7.00;5.60;;;;;;;29.93;80.26;100743.23;672258;1267;140579;-80
2023/08/18 07:02:04;;;;;;;64.50;24.50;;;;;;;28.94;81.78;100771.09;672358;1263;139662;-82
2023/08/18 07:17:08;;;;;;;12.40;8.50;;;;;;;28.60;83.44;100777.65;672257;1269;140446;-81
2023/08/18 07:32:11;;;;;;;9.80;6.70;;;;;;;29.03;83.77;100781.86;672545;1269;139471;-81
2023/08/18 07:47:15;;;;;;;8.00;5.90;;;;;;;33.08;76.86;100788.57;673793;1266;140121;-80
2023/08/18 08:02:18;;;;;;;15.90;6.00;;;;;;;34.80;69.89;100800.96;670646;1269;139898;-81
2023/08/18 08:17:32;;;;;;;14.50;7.00;;;;;;;35.33;66.78;100812.95;672423;1267;177352;-82
2023/08/18 08:32:36;;;;;;;9.10;5.80;;;;;;;36.72;64.02;100815.92;673015;1269;138799;-79
2023/08/18 08:47:40;;;;;;;5.60;4.60;;;;;;;37.79;61.44;100804.34;673223;1269;140749;-80
2023/08/18 09:02:44;;;;;;;6.70;4.90;;;;;;;35.92;62.19;100807.66;672631;1278;139350;-80
2023/08/18 09:17:47;;;;;;;7.80;4.70;;;;;;;33.19;65.19;100844.72;672198;1267;139090;-80
2023/08/18 09:32:51;;;;;;;6.40;3.10;;;;;;;31.03;67.69;100869.50;671652;1270;138227;-78
2023/08/18 09:47:56;;;;;;;6.00;4.20;;;;;;;30.12;69.26;100881.77;667125;1263;139611;-79
2023/08/18 10:03:03;;;;;;;9.00;4.80;;;;;;;29.95;72.66;100870.80;667078;1270;140143;-77
2023/08/18 10:18:11;;;;;;;7.00;4.70;;;;;;;30.57;73.47;100860.58;666818;1268;140042;-78
2023/08/18 10:33:46;;;;;;;6.60;4.00;;;;;;;33.63;69.83;100842.17;667564;1266;139363;-78
2023/08/18 10:48:50;;;;;;;5.90;4.40;;;;;;;35.84;63.70;100832.95;667426;1263;139223;-78
2023/08/18 11:03:53;;;;;;;5.00;4.00;;;;;;;36.70;61.95;100831.69;672441;1266;139610;-79
2023/08/18 11:18:57;;;;;;;5.70;3.90;;;;;;;36.41;61.12;100829.55;672397;1262;139781;-78
2023/08/18 11:34:00;;;;;;;4.70;4.30;;;;;;;36.40;61.27;100820.98;668934;1275;140062;-78
2023/08/18 11:49:18;;;;;;;8.10;4.40;;;;;;;34.80;63.31;100821.27;668622;1267;140684;-76
2023/08/18 12:04:24;;;;;;;6.50;5.20;;;;;;;33.09;65.53;100828.02;667950;1266;140121;-78
2023/08/18 12:19:28;;;;;;;4.90;4.30;;;;;;;31.98;68.57;100826.77;667524;1262;138257;-77
2023/08/18 12:34:31;;;;;;;5.70;4.60;;;;;;;31.33;68.16;100825.18;667260;1269;138150;-77
2023/08/18 12:49:34;;;;;;;6.40;4.80;;;;;;;31.08;69.23;100824.68;666755;1275;139820;-77
2023/08/18 13:04:38;;;;;;;5.80;4.60;;;;;;;30.62;70.79;100851.05;667030;1268;138039;-77
2023/08/18 13:19:41;;;;;;;8.20;5.80;;;;;;;30.16;72.14;100836.88;666746;1275;139457;-78
2023/08/18 13:34:51;;;;;;;7.70;6.10;;;;;;;29.92;76.40;100798.20;667366;1272;139673;-77
2023/08/18 13:49:55;;;;;;;7.80;6.00;;;;;;;29.92;79.61;100767.91;667801;1267;140595;-77
2023/08/18 14:04:58;;;;;;;47.30;22.60;;;;;;;30.15;79.71;100737.81;668184;1267;139408;-78
2023/08/18 14:20:11;;;;;;;13.00;8.40;;;;;;;30.35;79.15;100723.30;671505;1267;139270;-79
2023/08/18 14:35:15;;;;;;;17.10;8.70;;;;;;;30.67;80.47;100719.25;670768;1266;139321;-78
2023/08/18 14:50:19;;;;;;;11.40;8.80;;;;;;;31.15;80.21;100712.05;670925;1267;139724;-78
2023/08/18 15:05:23;;;;;;;12.30;9.20;;;;;;;31.21;80.65;100695.34;668612;1271;139413;-79
2023/08/18 15:20:28;;;;;;;14.10;9.70;;;;;;;31.44;81.02;100681.73;670081;1277;140821;-76
2023/08/18 15:35:32;;;;;;;14.70;10.30;;;;;;;31.69;81.41;100681.45;667818;1264;140106;-77
2023/08/18 15:50:36;;;;;;;17.00;11.30;;;;;;;32.20;81.54;100683.91;670457;1266;140895;-79
2023/08/18 16:05:41;;;;;;;14.10;11.30;;;;;;;32.85;81.17;100687.91;668164;1264;139778;-77
2023/08/18 16:20:45;;;;;;;13.80;10.60;;;;;;;33.00;81.82;100685.05;668016;1266;140543;-76
2023/08/18 16:35:51;;;;;;;9.00;8.10;;;;;;;32.94;80.73;100687.41;670919;1265;140370;-79
2023/08/18 16:51:03;;;;;;;15.90;10.70;;;;;;;32.22;79.69;100684.67;670805;1266;140965;-76
2023/08/18 17:06:08;;;;;;;13.20;9.90;;;;;;;31.77;80.29;100665.04;669035;1262;142320;-75
2023/08/18 17:21:11;;;;;;;16.70;12.40;;;;;;;31.35;82.23;100662.94;670130;1270;139191;-75
2023/08/18 17:55:46;;;;;;;25.80;18.60;;;;;;;30.37;87.38;100658.48;657731;1309;547126;-78
2023/08/18 18:10:50;;;;;;;21.70;14.30;;;;;;;29.81;89.52;100661.27;672680;1270;139121;-79
2023/08/18 18:25:56;;;;;;;20.10;14.20;;;;;;;29.03;91.79;100663.91;673935;1269;139319;-78
2023/08/18 18:41:00;;;;;;;18.70;14.60;;;;;;;28.50;93.75;100664.63;673007;1272;139902;-77
2023/08/18 18:56:03;;;;;;;23.80;19.40;;;;;;;28.26;94.92;100668.73;669381;1272;140906;-78
2023/08/18 19:11:07;;;;;;;24.10;16.90;;;;;;;28.05;95.20;100674.25;671300;1272;138650;-78
2023/08/18 19:26:11;;;;;;;22.80;15.70;;;;;;;27.14;99.44;100676.39;671051;1269;139608;-79
2023/08/18 19:41:16;;;;;;;34.50;26.90;;;;;;;26.79;99.67;100663.04;671393;1272;138987;-78
2023/08/18 19:56:20;;;;;;;23.80;18.30;;;;;;;26.73;99.79;100663.79;676090;1260;138773;-80
2023/08/18 20:11:25;;;;;;;33.70;22.90;;;;;;;26.49;100.00;100663.47;670518;1263;140057;-77
2023/08/18 20:26:29;;;;;;;30.30;22.60;;;;;;;26.23;100.00;100666.77;669749;1260;139924;-76
2023/08/18 20:41:33;;;;;;;32.80;23.90;;;;;;;26.02;100.00;100662.73;669524;1260;140030;-79
2023/08/18 20:56:37;;;;;;;28.40;19.80;;;;;;;25.83;100.00;100669.80;671965;1260;139660;-78
2023/08/18 21:11:41;;;;;;;26.30;19.50;;;;;;;25.76;100.00;100676.16;674777;1259;140165;-79
2023/08/18 21:26:44;;;;;;;30.60;22.00;;;;;;;25.72;100.00;100680.14;674842;1260;139540;-79
2023/08/18 21:41:48;;;;;;;28.90;20.70;;;;;;;25.62;100.00;100675.89;674592;1260;140000;-79
2023/08/18 21:56:51;;;;;;;33.90;22.60;;;;;;;25.44;100.00;100669.73;670851;1258;139445;-79
2023/08/18 22:11:55;;;;;;;27.70;20.50;;;;;;;25.35;100.00;100656.54;674524;1259;140945;-79
2023/08/18 22:26:58;;;;;;;28.60;20.30;;;;;;;24.97;100.00;100652.59;674842;1260;139308;-79
2023/08/18 22:42:03;;;;;;;30.40;22.30;;;;;;;24.83;100.00;100655.83;672612;1260;140330;-79
2023/08/18 22:57:07;;;;;;;27.20;21.30;;;;;;;24.64;100.00;100659.04;676209;1263;140516;-76
2023/08/18 23:12:11;;;;;;;28.50;20.80;;;;;;;24.43;100.00;100668.09;668511;1262;139291;-77
2023/08/18 23:27:15;;;;;;;33.80;23.80;;;;;;;24.33;100.00;100678.80;669547;1263;140054;-77
2023/08/18 23:42:18;;;;;;;36.10;25.40;;;;;;;24.52;100.00;100679.86;669120;1262;140700;-75
2023/08/18 23:57:22;;;;;;;31.60;22.90;;;;;;;24.66;100.00;100680.34;669464;1264;139552;-76
